Valencia, CA

12:30 AM PDT en Septiembre 01, 2014 (GMT -0700)
Valencia, CA | Change Station
CLOSE
Current Station
Estación meteorológica personal
Location: Valencia, CA
Altura: 1342 ft
Estaciones meteorológicas cercanas

Alt 1342 ft 34.44 °N, 118.55 °W | Updated 2 seconds ago

Despejado
Despejado
67.0 ° F
Sensación térmica 67.0 ° F
N
0.0
Viento Variable Viento desde SO
Gusts 0.0 mph

Hoy
Alta -- | Baja -- ° F
--% Posibilidad de precipitaciones
Ayer
Alta -- | Baja -- ° F
Precip. -- pul
6:27 AM 7:20 PM
Creciente, 38% visible
Presión 29.80 pul
Visibilidad 10.0 Millas
Nubes Despejado
Punto de rocío 60 ° F
Humedad 78%
Precipitaciones 0.00 pul
Espesor de la nieve No disponible.
UV 0 de una escala de 12
Polen 8.10 de una escala de 12
Ozono Buena
PM2.5 Moderada
Flu Activity No disponible.
METAR KVNY 010651Z AUTO 15004KT 10SM CLR 22/18 A2982 RMK AO2 SLP089 T02170178

More Conditions Fewer Conditions

Presión 29.80 pul
Visibilidad 10.0 Millas
Nubes Despejado
Punto de rocío 60 ° F
Humedad 78%
Precipitaciones 0.00 pul
Espesor de la nieve No disponible.
UV 0 de una escala de 12
Polen 8.10 de una escala de 12
Ozono Buena
PM2.5 Moderada
Flu Activity No disponible.
METAR KVNY 010651Z AUTO 15004KT 10SM CLR 22/18 A2982 RMK AO2 SLP089 T02170178

More Conditions Fewer Conditions

10-Day Weather Forecast

Almanac

Astronomía

Sep. 01, 2014 Salida Puesta
Hora real 6:27 AM PDT 7:20 PM PDT
Crepúsculo civil 6:01 AM PDT 7:45 PM PDT
Crepúsculo náutico 5:31 AM PDT 8:16 PM PDT
Crepúsculo astronómico 5:00 AM PDT 8:47 PM PDT
Luna 1:00 PM PDT 11:42 PM PDT
Horas de luz 13h 44m
Horas de luz
12h 52m
Tomorrow will be 2m 4s shorter.
Creciente, 38% of the Moon is Illuminated
Hoy
Creciente
Sep 2
Cuarto creciente
Sep 8
Luna llena
Sep 15
Cuarto menguante
Sep 24
Nueva

Extremos de hoy

Máximos del estado Bajos del estado

Community

WunderPhotos

Upload Photos

1,749,154 ¡fotos cargadas!

Nearby

Calidad del aire

  Calidad del aire Índice AQ Contaminante
Ayer Moderada
PM2.5
Real Moderada
PM2.5
Real Buena
OZONE
Lunes Nociva para grupos sensibles
OZONE
Lunes Buena
PM10
Lunes Buena
CO
Lunes Buena
NO2

Grosos de nieve

Estación Profundido Altura
Leavitt Lake 0 in 9400 ft
Leavitt Meadows 1 in 7200 ft
Summit Meadow 1 in 9122 ft
Blue Lakes 0 in 8000 ft
Monitor Pass 0 in 8350 ft

Actividad de terremotos

Ciudad Distance Mag. Tiempo y dato
Malibu, California 58 Millas 2.5 8:11 AM PDT
2014-08-30
Magnitud mínima muestra es 2,5.

Temperaturas de aguas costeras

Lugar Temperatura
Santa Monica Pier 73.0 ° F
Los Angeles, CA 68.0 ° F
La Jolla, CA 73.9 ° F

Estaciones meteorológicas cercanas